Time;durP1;ratioP1;P1;durP2;ratioP2;P2;SDS_P1;SDS_P2;PMS_P1;PMS_P2;Temp;Humidity;BMP_temperature;BMP_pressure;BME280_temperature;BME280_humidity;BME280_pressure;Samples;Min_cycle;Max_cycle;Signal;HPM_P1;HPM_P2
2023/03/07 00:01:35;;;;;;;22.20;14.60;;;;;;;1.29;66.46;99655.38;107989;1254;73631;-63
2023/03/07 00:04:03;;;;;;;22.80;15.20;;;;;;;1.29;66.43;99654.55;107891;1258;62095;-64
2023/03/07 00:06:43;;;;;;;21.40;14.70;;;;;;;1.31;66.26;99650.16;100461;1254;10001975;-63
2023/03/07 00:09:11;;;;;;;21.00;13.80;;;;;;;1.30;66.35;99645.79;107907;1254;61144;-64
2023/03/07 00:11:40;;;;;;;20.80;14.20;;;;;;;1.27;66.16;99644.70;108107;1254;73956;-64
2023/03/07 00:14:08;;;;;;;21.00;13.90;;;;;;;1.23;65.98;99644.46;107888;1254;62324;-64
2023/03/07 00:16:37;;;;;;;20.90;13.70;;;;;;;1.13;66.11;99641.55;107968;1254;61129;-65
2023/03/07 00:19:06;;;;;;;22.10;13.00;;;;;;;1.02;66.13;99635.46;108140;1254;73932;-63
2023/03/07 00:21:36;;;;;;;20.20;12.80;;;;;;;0.89;66.23;99631.30;107980;1254;73395;-64
2023/03/07 00:24:05;;;;;;;19.20;13.10;;;;;;;0.81;66.47;99628.98;108025;1254;74321;-63
2023/03/07 00:26:38;;;;;;;17.50;12.90;;;;;;;0.77;66.41;99630.08;107953;1254;61226;-64
2023/03/07 00:29:09;;;;;;;20.20;12.90;;;;;;;0.69;66.76;99621.28;107898;1254;61554;-65
2023/03/07 00:32:00;;;;;;;22.90;14.00;;;;;;;0.65;66.47;99619.30;107900;1254;77128;-64
2023/03/07 00:34:29;;;;;;;20.90;13.80;;;;;;;0.65;66.64;99621.20;107919;1254;73290;-64
2023/03/07 00:36:59;;;;;;;20.90;13.60;;;;;;;0.67;66.88;99617.95;108580;1254;73594;-64
2023/03/07 00:39:27;;;;;;;23.00;14.50;;;;;;;0.71;66.90;99614.60;108520;1256;62238;-64
2023/03/07 00:41:55;;;;;;;20.70;14.00;;;;;;;0.75;66.79;99611.29;108002;1254;61156;-66
2023/03/07 00:44:25;;;;;;;19.60;13.70;;;;;;;0.77;66.99;99608.63;107992;1254;75839;-66
2023/03/07 00:46:55;;;;;;;20.40;13.40;;;;;;;0.83;67.09;99608.67;107976;1254;73975;-64
2023/03/07 00:49:24;;;;;;;20.80;13.10;;;;;;;0.90;67.06;99603.10;107992;1256;73588;-64
2023/03/07 00:51:53;;;;;;;23.10;13.80;;;;;;;0.98;67.35;99601.16;107984;1254;61845;-64
2023/03/07 00:54:22;;;;;;;20.90;13.20;;;;;;;1.05;67.48;99598.34;107977;1254;61708;-63
2023/03/07 00:56:52;;;;;;;20.20;13.20;;;;;;;1.13;67.27;99595.38;107847;1260;75658;-64
2023/03/07 00:59:21;;;;;;;19.50;13.30;;;;;;;1.23;67.28;99592.22;107949;1254;73945;-64
2023/03/07 01:01:49;;;;;;;24.20;14.00;;;;;;;1.30;67.39;99584.81;107930;1256;73577;-63
2023/03/07 01:04:20;;;;;;;19.80;13.00;;;;;;;1.38;67.42;99582.81;107799;1257;62432;-63
2023/03/07 01:06:50;;;;;;;22.00;13.70;;;;;;;1.41;67.14;99582.11;107997;1258;61099;-63
2023/03/07 01:09:20;;;;;;;21.60;14.40;;;;;;;1.43;67.11;99577.85;107963;1254;75626;-63
2023/03/07 01:11:50;;;;;;;18.90;13.00;;;;;;;1.48;67.00;99575.26;108021;1254;70709;-63
2023/03/07 01:14:22;;;;;;;20.00;13.30;;;;;;;1.51;66.90;99571.19;107774;1254;72687;-63
2023/03/07 01:17:06;;;;;;;20.70;13.40;;;;;;;1.52;66.86;99563.69;107820;1254;61307;-64
2023/03/07 01:19:54;;;;;;;20.10;13.10;;;;;;;1.58;66.81;99558.42;108022;1257;61353;-63
2023/03/07 01:22:44;;;;;;;18.50;13.00;;;;;;;1.62;66.58;99556.59;107912;1254;75831;-64
2023/03/07 01:25:25;;;;;;;19.40;13.10;;;;;;;1.67;66.48;99554.76;108042;1254;73348;-64
2023/03/07 01:28:08;;;;;;;20.10;13.90;;;;;;;1.69;66.09;99546.55;108457;1260;72148;-64
2023/03/07 01:30:57;;;;;;;20.20;13.00;;;;;;;1.70;66.12;99544.88;107814;1254;62148;-64
2023/03/07 01:33:29;;;;;;;19.50;12.90;;;;;;;1.67;65.67;99548.06;108032;1254;61238;-64
2023/03/07 01:36:02;;;;;;;18.50;12.60;;;;;;;1.63;65.86;99544.40;107863;1256;75679;-64
2023/03/07 01:38:35;;;;;;;19.30;12.80;;;;;;;1.59;65.74;99541.46;107926;1256;73650;-63
2023/03/07 01:41:08;;;;;;;20.00;13.90;;;;;;;1.53;65.65;99538.85;107937;1254;72041;-63
2023/03/07 01:43:55;;;;;;;18.00;12.20;;;;;;;1.46;65.71;99536.67;108052;1254;61234;-63
2023/03/07 01:47:03;;;;;;;20.90;13.30;;;;;;;1.41;65.57;99533.80;107962;1255;61084;-64
2023/03/07 01:49:55;;;;;;;19.20;12.40;;;;;;;1.39;65.38;99527.55;107960;1254;75490;-64
2023/03/07 01:52:52;;;;;;;20.50;13.20;;;;;;;1.33;65.49;99523.85;107845;1259;72641;-64
2023/03/07 01:55:40;;;;;;;21.00;14.30;;;;;;;1.19;65.53;99520.64;107894;1254;74059;-64
2023/03/07 01:58:27;;;;;;;21.60;13.40;;;;;;;1.10;65.32;99518.92;107867;1254;62385;-64
2023/03/07 02:01:09;;;;;;;20.40;13.50;;;;;;;1.06;65.65;99518.48;107889;1254;61120;-64
2023/03/07 02:04:18;;;;;;;19.80;13.20;;;;;;;1.06;65.95;99517.79;107856;1254;75656;-63
2023/03/07 02:06:47;;;;;;;21.80;13.90;;;;;;;1.09;65.95;99513.30;108121;1254;72696;-64
2023/03/07 02:09:26;;;;;;;20.40;13.60;;;;;;;1.09;65.84;99510.19;108052;1254;73114;-63
2023/03/07 02:12:14;;;;;;;18.70;12.30;;;;;;;1.10;65.69;99511.42;107796;1253;61208;-63
2023/03/07 02:14:52;;;;;;;19.20;13.60;;;;;;;1.08;65.59;99506.70;107812;1256;59637;-64
2023/03/07 02:17:31;;;;;;;24.70;15.10;;;;;;;1.03;65.72;99501.77;107827;1259;75942;-63
2023/03/07 02:20:35;;;;;;;23.20;14.30;;;;;;;0.98;65.66;99498.79;107857;1254;74229;-63
2023/03/07 02:23:44;;;;;;;22.30;13.40;;;;;;;0.92;65.77;99499.62;107998;1254;73613;-63
2023/03/07 02:26:52;;;;;;;23.20;14.00;;;;;;;0.88;65.73;99496.95;108697;1255;61246;-64
2023/03/07 02:29:33;;;;;;;20.70;13.50;;;;;;;0.90;65.85;99497.14;108180;1257;59963;-63
2023/03/07 02:32:14;;;;;;;22.10;14.30;;;;;;;0.89;65.50;99491.92;107766;1257;74360;-63
2023/03/07 02:34:58;;;;;;;22.90;15.10;;;;;;;0.90;65.59;99490.47;107787;1254;70617;-66
2023/03/07 02:37:51;;;;;;;23.40;14.70;;;;;;;0.90;65.71;99486.90;107820;1254;72494;-64
2023/03/07 03:10:54;;;;;;;25.70;15.00;;;;;;;0.55;65.78;99458.49;107618;1259;73328;-64
2023/03/07 03:13:29;;;;;;;24.90;15.80;;;;;;;0.53;65.98;99455.44;107885;1254;73610;-66
2023/03/07 03:15:58;;;;;;;23.20;14.80;;;;;;;0.56;66.12;99454.60;108021;1253;71549;-63
2023/03/07 03:18:27;;;;;;;23.30;15.20;;;;;;;0.59;65.98;99453.56;108071;1254;62251;-65
2023/03/07 03:20:56;;;;;;;24.50;15.30;;;;;;;0.59;66.15;99457.77;108040;1257;61160;-63
2023/03/07 03:23:27;;;;;;;27.30;14.70;;;;;;;0.61;66.33;99455.48;107945;1254;75332;-64
2023/03/07 03:26:03;;;;;;;23.40;14.70;;;;;;;0.64;66.28;99457.98;108046;1254;73798;-63
2023/03/07 03:28:34;;;;;;;22.00;13.80;;;;;;;0.67;66.48;99454.44;107965;1254;73825;-63
2023/03/07 03:31:05;;;;;;;23.80;14.20;;;;;;;0.70;66.24;99453.33;108015;1255;61240;-64
2023/03/07 03:33:35;;;;;;;22.80;14.40;;;;;;;0.68;66.53;99447.07;108011;1255;61155;-64
2023/03/07 03:36:08;;;;;;;24.80;15.00;;;;;;;0.64;66.32;99446.09;108038;1256;75668;-63
2023/03/07 03:38:38;;;;;;;24.10;15.20;;;;;;;0.61;66.48;99448.48;108010;1259;73559;-64
2023/03/07 03:41:10;;;;;;;21.70;14.30;;;;;;;0.62;66.47;99447.86;108027;1253;73959;-64
2023/03/07 03:43:39;;;;;;;22.20;14.20;;;;;;;0.61;66.69;99450.59;107951;1258;61174;-63
2023/03/07 03:46:07;;;;;;;23.60;14.80;;;;;;;0.60;66.55;99449.19;108016;1254;61142;-63
2023/03/07 03:48:37;;;;;;;25.30;14.80;;;;;;;0.59;66.60;99449.89;108007;1257;74915;-64
2023/03/07 03:51:10;;;;;;;;;;;;;;;0.59;66.90;99449.63;107958;1257;73469;-63
2023/03/07 03:53:39;;;;;;;24.40;14.40;;;;;;;0.61;66.64;99448.52;107983;1254;72062;-63
2023/03/07 03:56:12;;;;;;;23.10;13.90;;;;;;;0.60;66.81;99446.52;107929;1254;61167;-63
2023/03/07 03:58:41;;;;;;;20.40;13.50;;;;;;;0.61;66.70;99448.60;107788;1254;61151;-63
2023/03/07 04:01:11;;;;;;;22.10;14.00;;;;;;;0.65;66.91;99446.76;107861;1256;73457;-63
2023/03/07 04:03:44;;;;;;;26.20;15.40;;;;;;;0.67;66.69;99444.82;107992;1260;72975;-64
2023/03/07 04:06:15;;;;;;;25.40;14.70;;;;;;;0.70;66.67;99445.32;107987;1255;71468;-63
2023/03/07 04:08:50;;;;;;;22.00;13.90;;;;;;;0.75;66.66;99441.62;107906;1255;61221;-63
2023/03/07 04:11:20;;;;;;;19.50;14.00;;;;;;;0.78;66.77;99443.48;107980;1254;59851;-63
2023/03/07 04:13:49;;;;;;;24.50;16.00;;;;;;;0.81;66.86;99443.85;108032;1259;73545;-63
2023/03/07 04:16:21;;;;;;;21.50;14.70;;;;;;;0.87;66.70;99447.55;108008;1254;72708;-65
2023/03/07 04:18:51;;;;;;;20.60;13.80;;;;;;;0.94;66.66;99446.89;107985;1254;71790;-62
2023/03/07 04:21:20;;;;;;;21.20;14.00;;;;;;;1.03;66.68;99444.41;107964;1259;61124;-64
2023/03/07 04:23:57;;;;;;;21.30;14.60;;;;;;;1.14;66.66;99440.16;108054;1254;61314;-64
2023/03/07 04:26:29;;;;;;;25.20;15.30;;;;;;;1.22;66.71;99442.95;108056;1254;72859;-63
2023/03/07 04:28:57;;;;;;;21.60;14.10;;;;;;;1.25;66.31;99438.36;107930;1255;72071;-63
2023/03/07 04:31:31;;;;;;;21.70;14.10;;;;;;;1.29;66.34;99436.93;107995;1259;74064;-64
2023/03/07 04:34:02;;;;;;;20.40;13.20;;;;;;;1.34;66.20;99433.21;107910;1255;62104;-63
2023/03/07 04:36:31;;;;;;;22.70;13.40;;;;;;;1.38;66.08;99432.48;108068;1254;61103;-64
2023/03/07 04:39:00;;;;;;;24.70;12.90;;;;;;;1.44;66.16;99433.98;103747;1260;5712111;-63
2023/03/07 04:41:31;;;;;;;22.20;12.80;;;;;;;1.48;65.95;99431.08;107842;1254;73505;-64
2023/03/07 04:44:07;;;;;;;18.00;11.90;;;;;;;1.54;65.84;99430.10;107925;1256;61150;-65
2023/03/07 04:46:35;;;;;;;20.60;13.40;;;;;;;1.56;65.78;99425.25;107905;1254;60785;-64
2023/03/07 04:49:04;;;;;;;20.00;13.00;;;;;;;1.59;65.72;99427.95;107927;1254;74583;-64
2023/03/07 04:51:32;;;;;;;20.40;13.50;;;;;;;1.63;65.57;99423.85;107898;1254;73874;-65
2023/03/07 04:54:01;;;;;;;19.40;11.60;;;;;;;1.66;65.24;99425.80;107918;1254;74076;-64
2023/03/07 04:56:30;;;;;;;21.10;12.80;;;;;;;1.70;65.37;99420.06;107891;1260;61578;-65
2023/03/07 04:58:59;;;;;;;20.20;12.80;;;;;;;1.77;65.34;99416.86;107946;1255;61350;-64
2023/03/07 05:01:28;;;;;;;18.00;11.70;;;;;;;1.82;65.38;99420.68;107845;1255;74018;-64
2023/03/07 05:03:57;;;;;;;17.20;11.60;;;;;;;1.91;65.11;99419.40;108045;1254;73670;-64
2023/03/07 05:06:26;;;;;;;19.90;12.40;;;;;;;1.99;64.97;99419.02;108049;1258;71550;-63
2023/03/07 05:08:55;;;;;;;21.30;12.60;;;;;;;2.09;65.01;99413.83;107995;1254;61449;-63
2023/03/07 05:11:25;;;;;;;18.80;11.40;;;;;;;2.19;64.90;99412.34;108020;1254;61146;-64
2023/03/07 05:13:56;;;;;;;19.80;11.30;;;;;;;2.26;64.59;99408.02;108003;1254;75912;-64
2023/03/07 05:16:24;;;;;;;16.90;11.20;;;;;;;2.33;64.49;99405.95;108045;1254;73382;-64
2023/03/07 05:18:53;;;;;;;15.20;10.40;;;;;;;2.42;64.38;99407.08;108066;1256;72080;-64
2023/03/07 05:21:22;;;;;;;16.40;10.30;;;;;;;2.51;64.42;99408.93;108039;1257;61256;-64
2023/03/07 05:23:52;;;;;;;15.50;9.90;;;;;;;2.64;64.25;99409.55;108058;1254;61748;-64
2023/03/07 05:26:20;;;;;;;16.00;9.60;;;;;;;2.75;63.99;99409.45;108031;1255;74710;-64
2023/03/07 05:28:49;;;;;;;13.30;9.30;;;;;;;2.86;63.67;99407.77;108034;1254;72985;-63
2023/03/07 05:31:18;;;;;;;16.00;9.50;;;;;;;2.97;63.27;99404.61;107983;1257;73670;-65
2023/03/07 05:33:47;;;;;;;15.30;9.80;;;;;;;3.10;62.94;99397.98;107984;1259;62498;-65
2023/03/07 05:36:18;;;;;;;14.90;9.70;;;;;;;3.24;62.72;99403.14;108070;1254;61154;-64
2023/03/07 05:38:47;;;;;;;16.40;10.00;;;;;;;3.37;62.29;99406.70;108009;1254;74674;-64
2023/03/07 05:41:16;;;;;;;14.20;8.80;;;;;;;3.50;61.99;99407.34;108048;1257;72652;-64
2023/03/07 05:43:45;;;;;;;16.70;10.20;;;;;;;3.62;61.28;99414.19;108039;1254;73054;-64
2023/03/07 05:46:14;;;;;;;15.40;9.60;;;;;;;3.71;60.71;99415.18;108057;1254;61241;-63
2023/03/07 05:48:43;;;;;;;13.60;9.30;;;;;;;3.80;60.31;99421.25;108001;1254;61144;-63
2023/03/07 05:51:11;;;;;;;14.40;9.20;;;;;;;3.89;59.88;99415.95;108088;1254;75472;-64
2023/03/07 05:53:40;;;;;;;14.70;9.10;;;;;;;3.97;59.34;99418.55;107995;1254;73033;-63
2023/03/07 05:56:14;;;;;;;13.90;9.30;;;;;;;4.07;58.77;99415.95;107932;1257;71474;-63
2023/03/07 05:58:43;;;;;;;13.10;9.00;;;;;;;4.13;58.46;99415.05;108107;1254;61732;-62
2023/03/07 06:01:12;;;;;;;13.80;9.00;;;;;;;4.21;58.02;99419.52;107957;1257;61128;-64
2023/03/07 06:03:42;;;;;;;16.20;9.80;;;;;;;4.27;57.52;99417.09;107982;1254;74670;-63
2023/03/07 06:06:11;;;;;;;15.80;10.20;;;;;;;4.33;57.03;99413.31;107983;1254;71880;-63
2023/03/07 06:08:55;;;;;;;15.10;10.20;;;;;;;4.40;56.73;99417.20;108046;1255;71758;-65
2023/03/07 06:11:25;;;;;;;16.10;9.80;;;;;;;4.44;56.20;99420.65;108040;1254;61119;-64
2023/03/07 06:13:57;;;;;;;14.80;9.70;;;;;;;4.48;55.96;99419.96;108125;1255;61135;-63
2023/03/07 06:16:26;;;;;;;14.90;9.10;;;;;;;4.52;55.91;99423.23;108115;1254;74920;-63
2023/03/07 06:18:55;;;;;;;15.10;9.40;;;;;;;4.53;55.52;99424.83;108114;1254;73510;-64
2023/03/07 06:21:29;;;;;;;13.70;9.20;;;;;;;4.56;55.69;99431.95;107951;1259;73478;-63
2023/03/07 06:23:58;;;;;;;13.40;8.80;;;;;;;4.58;55.62;99425.70;108142;1254;62053;-64
2023/03/07 06:26:26;;;;;;;13.10;9.20;;;;;;;4.64;55.78;99430.36;108001;1254;61621;-64
2023/03/07 06:28:55;;;;;;;14.70;9.60;;;;;;;4.68;55.66;99433.06;108144;1254;74933;-64
2023/03/07 06:31:25;;;;;;;15.60;9.30;;;;;;;4.67;55.82;99431.43;108014;1254;74097;-64
2023/03/07 06:33:54;;;;;;;14.30;9.50;;;;;;;4.70;56.11;99436.38;108077;1256;73418;-64
2023/03/07 06:36:25;;;;;;;15.20;9.60;;;;;;;4.72;56.37;99433.17;108063;1255;62089;-64
2023/03/07 06:38:59;;;;;;;13.00;9.50;;;;;;;4.75;56.65;99434.05;108032;1254;59484;-63
2023/03/07 06:41:29;;;;;;;13.70;9.30;;;;;;;4.76;57.17;99436.77;108045;1254;76047;-64
2023/03/07 06:43:59;;;;;;;12.80;8.60;;;;;;;4.77;57.47;99433.48;107952;1254;72515;-64
2023/03/07 06:46:31;;;;;;;14.80;9.60;;;;;;;4.75;58.11;99433.05;108051;1254;73048;-63
2023/03/07 06:49:04;;;;;;;14.70;9.40;;;;;;;4.75;58.48;99436.23;108038;1255;61557;-65
2023/03/07 06:51:33;;;;;;;13.40;9.20;;;;;;;4.75;59.02;99429.02;107978;1254;61124;-64
2023/03/07 06:54:09;;;;;;;16.30;10.30;;;;;;;4.72;59.46;99425.12;108080;1258;73798;-64
2023/03/07 06:56:39;;;;;;;14.50;8.90;;;;;;;4.68;59.94;99424.87;107960;1257;74610;-64
2023/03/07 06:59:13;;;;;;;15.20;9.80;;;;;;;4.68;60.15;99417.67;108114;1254;71408;-64
2023/03/07 07:01:41;;;;;;;14.70;9.40;;;;;;;4.73;60.49;99418.20;108121;1254;62110;-65
2023/03/07 07:04:10;;;;;;;12.80;8.90;;;;;;;4.81;60.86;99415.28;108115;1254;61244;-64
2023/03/07 07:06:44;;;;;;;14.10;9.30;;;;;;;4.88;61.07;99417.02;108006;1257;75606;-64
2023/03/07 07:09:15;;;;;;;13.20;9.40;;;;;;;4.93;61.33;99412.10;108078;1254;71574;-63
2023/03/07 07:11:45;;;;;;;15.70;10.60;;;;;;;4.98;61.62;99407.21;108065;1254;72272;-64
2023/03/07 07:14:15;;;;;;;15.50;9.50;;;;;;;4.99;61.76;99411.41;108021;1254;61256;-65
2023/03/07 07:16:45;;;;;;;14.10;9.60;;;;;;;5.02;62.11;99410.50;108080;1254;61191;-65
2023/03/07 07:19:14;;;;;;;13.60;8.40;;;;;;;5.07;62.12;99411.92;108102;1258;73945;-64
2023/03/07 07:21:43;;;;;;;14.60;10.00;;;;;;;5.08;62.22;99410.77;108003;1260;71872;-64
2023/03/07 07:24:13;;;;;;;15.90;10.50;;;;;;;5.07;62.36;99409.14;107914;1254;71673;-64
2023/03/07 07:26:41;;;;;;;16.50;10.70;;;;;;;5.09;62.52;99412.27;108052;1254;61147;-65
2023/03/07 07:29:10;;;;;;;12.80;8.90;;;;;;;5.11;62.52;99409.27;108071;1254;61250;-66
2023/03/07 07:31:39;;;;;;;14.60;10.50;;;;;;;5.11;62.75;99408.42;108125;1254;75427;-64
2023/03/07 07:34:08;;;;;;;15.10;10.20;;;;;;;5.10;62.87;99404.89;108087;1254;73082;-66
2023/03/07 07:36:37;;;;;;;15.70;10.60;;;;;;;5.11;63.06;99403.88;108108;1258;72350;-65
2023/03/07 07:39:06;;;;;;;14.40;10.70;;;;;;;5.09;63.13;99404.27;108205;1254;61923;-65
2023/03/07 07:41:36;;;;;;;14.70;10.10;;;;;;;5.03;63.22;99402.73;108079;1254;61342;-65
2023/03/07 07:44:05;;;;;;;16.00;10.50;;;;;;;4.97;63.51;99404.09;108096;1254;75541;-65
2023/03/07 07:46:45;;;;;;;15.00;10.60;;;;;;;4.94;63.63;99399.99;108199;1254;72292;-65
2023/03/07 07:49:14;;;;;;;16.70;10.90;;;;;;;4.95;63.93;99399.52;108148;1254;72032;-64
2023/03/07 07:51:45;;;;;;;14.20;10.10;;;;;;;4.97;63.95;99397.52;108003;1253;61498;-65
2023/03/07 07:54:16;;;;;;;12.80;9.50;;;;;;;4.97;64.03;99395.50;107926;1256;61245;-63
2023/03/07 07:56:45;;;;;;;13.10;9.10;;;;;;;4.95;64.22;99393.48;108119;1254;74675;-65
2023/03/07 07:59:16;;;;;;;13.90;9.80;;;;;;;4.95;64.34;99394.17;108123;1255;72558;-64
2023/03/07 08:01:44;;;;;;;15.00;9.90;;;;;;;4.96;64.46;99395.49;107906;1254;72420;-67
2023/03/07 08:04:13;;;;;;;15.60;10.30;;;;;;;4.97;64.61;99390.64;108042;1254;62330;-65
2023/03/07 08:06:43;;;;;;;15.40;10.40;;;;;;;4.96;64.70;99393.06;108043;1254;60348;-64
2023/03/07 08:09:13;;;;;;;15.00;10.80;;;;;;;4.93;64.91;99391.93;108053;1254;75994;-64
2023/03/07 08:11:44;;;;;;;15.20;9.70;;;;;;;4.93;65.05;99393.36;108049;1254;73973;-64
2023/03/07 08:14:12;;;;;;;16.10;10.00;;;;;;;4.92;65.15;99394.09;108125;1258;72989;-64
2023/03/07 08:16:41;;;;;;;16.10;10.10;;;;;;;4.92;65.27;99397.84;108117;1254;61125;-63
2023/03/07 08:19:09;;;;;;;16.40;10.30;;;;;;;4.94;65.25;99397.66;108131;1257;61116;-64
2023/03/07 08:21:38;;;;;;;13.40;9.60;;;;;;;4.94;65.40;99401.94;108181;1254;73834;-64
2023/03/07 08:24:07;;;;;;;16.30;10.40;;;;;;;4.94;65.50;99399.30;108130;1254;73032;-65
2023/03/07 08:26:35;;;;;;;14.50;9.80;;;;;;;4.97;65.58;99398.85;108104;1254;72291;-64
2023/03/07 08:29:04;;;;;;;14.70;10.10;;;;;;;5.02;65.65;99399.16;108096;1254;61439;-65
2023/03/07 08:31:33;;;;;;;15.90;10.50;;;;;;;4.98;65.71;99402.40;108106;1254;61615;-65
2023/03/07 08:34:01;;;;;;;15.40;10.40;;;;;;;4.88;65.77;99407.11;108072;1254;74386;-64
2023/03/07 08:36:30;;;;;;;15.20;10.60;;;;;;;4.85;66.12;99408.04;108125;1254;73529;-63
2023/03/07 08:38:59;;;;;;;14.80;9.70;;;;;;;4.85;66.24;99411.10;108029;1254;73647;-65
2023/03/07 08:41:31;;;;;;;15.30;10.60;;;;;;;4.87;66.38;99411.95;108110;1258;61929;-66
2023/03/07 08:44:01;;;;;;;12.90;9.40;;;;;;;4.89;66.52;99411.84;108076;1254;60974;-66
2023/03/07 08:46:39;;;;;;;14.50;9.90;;;;;;;4.92;66.83;99408.95;108055;1257;74774;-67
2023/03/07 08:49:23;;;;;;;15.80;10.40;;;;;;;4.92;66.99;99406.79;107995;1254;72057;-66
2023/03/07 08:51:56;;;;;;;14.20;9.60;;;;;;;5.02;67.20;99404.14;108098;1254;73888;-67
2023/03/07 08:54:28;;;;;;;11.40;7.60;;;;;;;5.20;67.24;99402.48;108103;1254;62136;-66
2023/03/07 08:56:59;;;;;;;14.40;9.80;;;;;;;5.36;67.31;99397.71;108066;1254;61317;-65
2023/03/07 08:59:28;;;;;;;13.90;9.60;;;;;;;5.56;67.29;99400.96;108070;1254;74364;-64
2023/03/07 09:01:56;;;;;;;14.00;9.80;;;;;;;5.78;67.00;99402.36;108090;1254;71963;-67
2023/03/07 09:04:27;;;;;;;12.90;8.50;;;;;;;6.01;66.95;99398.50;108028;1254;72649;-66
2023/03/07 09:07:13;;;;;;;12.70;8.80;;;;;;;6.26;66.65;99399.84;108087;1254;61121;-65
2023/03/07 09:09:55;;;;;;;11.60;8.60;;;;;;;6.53;65.78;99398.18;108136;1254;61555;-65
2023/03/07 09:12:29;;;;;;;13.20;9.70;;;;;;;6.65;65.27;99391.70;108124;1254;75328;-66
2023/03/07 09:15:04;;;;;;;13.20;9.30;;;;;;;6.78;64.91;99396.54;108026;1254;73791;-65
2023/03/07 09:17:33;;;;;;;12.90;9.60;;;;;;;6.89;64.44;99391.84;108143;1253;74421;-64
2023/03/07 09:20:03;;;;;;;11.90;8.90;;;;;;;6.99;64.02;99392.02;108113;1254;61770;-65
2023/03/07 09:22:34;;;;;;;11.80;8.90;;;;;;;7.08;63.55;99392.33;108196;1254;59982;-67
2023/03/07 09:25:05;;;;;;;13.20;9.20;;;;;;;7.14;63.08;99396.79;107949;1254;75478;-63
2023/03/07 09:27:33;;;;;;;12.30;8.80;;;;;;;7.14;62.48;99394.82;108165;1256;72428;-64
2023/03/07 09:30:02;;;;;;;11.70;9.10;;;;;;;7.06;62.05;99396.55;108157;1254;72096;-63
2023/03/07 09:32:32;;;;;;;11.20;9.20;;;;;;;7.00;61.91;99397.92;108187;1254;61279;-65
2023/03/07 09:35:02;;;;;;;13.00;9.60;;;;;;;6.97;61.52;99400.67;108155;1254;61407;-65
2023/03/07 09:37:31;;;;;;;13.10;8.90;;;;;;;6.88;61.48;99406.66;108143;1254;73115;-65
2023/03/07 09:40:00;;;;;;;11.20;8.70;;;;;;;6.70;61.46;99408.91;108108;1254;72985;-64
2023/03/07 09:42:44;;;;;;;11.80;8.30;;;;;;;6.55;61.75;99411.83;108085;1254;73107;-64
2023/03/07 09:45:16;;;;;;;12.70;9.00;;;;;;;6.46;62.15;99416.55;108163;1254;61011;-63
2023/03/07 09:48:32;;;;;;;12.40;9.50;;;;;;;6.33;62.34;99421.30;108099;1254;61247;-65
2023/03/07 09:51:04;;;;;;;11.80;9.20;;;;;;;6.27;62.69;99421.80;108084;1254;74147;-64
2023/03/07 09:53:50;;;;;;;13.30;9.70;;;;;;;6.23;62.43;99424.38;108097;1254;72003;-64
2023/03/07 09:56:23;;;;;;;12.40;9.40;;;;;;;6.13;62.32;99424.95;108141;1254;72168;-64
2023/03/07 09:59:13;;;;;;;13.20;9.10;;;;;;;6.08;62.36;99425.61;108181;1254;61105;-65
2023/03/07 10:02:10;;;;;;;13.90;9.70;;;;;;;6.14;62.56;99429.63;108153;1254;61097;-64
2023/03/07 10:04:48;;;;;;;13.40;10.60;;;;;;;6.21;62.03;99427.82;108124;1254;75000;-64
2023/03/07 10:07:16;;;;;;;13.20;10.20;;;;;;;6.25;61.33;99424.55;108186;1254;72347;-63
2023/03/07 10:09:45;;;;;;;15.00;11.30;;;;;;;6.31;60.44;99425.02;107894;1254;73106;-65
2023/03/07 10:12:20;;;;;;;13.50;10.40;;;;;;;6.45;60.42;99420.27;108073;1253;61879;-65
2023/03/07 10:15:21;;;;;;;13.30;10.20;;;;;;;6.67;59.93;99422.11;108152;1254;61256;-65
2023/03/07 10:18:21;;;;;;;13.00;10.30;;;;;;;6.93;59.35;99410.27;107862;1254;77277;-65
2023/03/07 10:21:24;;;;;;;13.60;10.30;;;;;;;7.09;58.48;99407.56;108096;1254;71677;-65
2023/03/07 10:24:05;;;;;;;12.70;10.30;;;;;;;7.08;56.61;99406.27;108169;1254;73918;-65
2023/03/07 10:26:39;;;;;;;15.00;11.40;;;;;;;7.02;56.53;99397.40;108125;1254;61195;-65
2023/03/07 10:29:16;;;;;;;16.50;11.20;;;;;;;7.03;56.23;99391.72;108097;1254;61105;-66
2023/03/07 10:31:52;;;;;;;11.80;9.10;;;;;;;7.13;55.86;99391.26;108154;1254;75925;-66
2023/03/07 10:34:23;;;;;;;14.10;10.00;;;;;;;7.31;54.88;99389.28;108099;1254;73541;-64
2023/03/07 10:36:59;;;;;;;12.30;9.70;;;;;;;7.42;53.90;99374.48;108078;1254;74056;-67
2023/03/07 10:39:53;;;;;;;13.50;10.40;;;;;;;7.44;52.71;99374.85;107993;1254;61197;-66
2023/03/07 10:42:26;;;;;;;12.90;10.20;;;;;;;7.42;52.45;99369.80;108132;1254;61132;-64
2023/03/07 10:44:55;;;;;;;13.50;10.20;;;;;;;7.50;52.85;99368.73;108092;1254;72752;-66
2023/03/07 10:47:26;;;;;;;11.70;9.80;;;;;;;7.69;52.95;99374.21;108113;1257;73756;-63
2023/03/07 10:50:18;;;;;;;14.20;10.60;;;;;;;7.89;52.14;99375.77;108099;1254;72659;-63
2023/03/07 10:52:56;;;;;;;12.40;9.60;;;;;;;7.91;50.86;99374.35;108117;1253;61112;-64
2023/03/07 10:55:34;;;;;;;14.60;10.30;;;;;;;7.78;49.94;99371.80;108060;1254;61224;-63
2023/03/07 10:58:27;;;;;;;13.50;9.70;;;;;;;7.68;50.07;99375.91;108103;1254;74016;-65
2023/03/07 11:01:14;;;;;;;12.30;9.90;;;;;;;7.60;50.17;99372.04;108078;1254;73071;-65
2023/03/07 11:03:56;;;;;;;12.70;10.00;;;;;;;7.60;50.27;99370.70;108071;1254;73662;-64
2023/03/07 11:06:32;;;;;;;13.80;10.00;;;;;;;7.57;50.13;99369.48;108140;1254;59171;-64
2023/03/07 11:09:16;;;;;;;13.40;10.60;;;;;;;7.50;50.23;99367.56;108119;1254;61513;-64
2023/03/07 11:11:49;;;;;;;15.40;11.30;;;;;;;7.45;50.33;99370.80;108114;1257;73837;-63
2023/03/07 11:14:20;;;;;;;15.80;10.40;;;;;;;7.42;50.20;99368.15;108081;1254;75062;-66
2023/03/07 11:16:54;;;;;;;13.10;10.60;;;;;;;7.38;50.34;99365.64;108105;1257;73919;-65
2023/03/07 11:19:39;;;;;;;13.60;10.30;;;;;;;7.34;50.50;99363.67;108080;1254;61135;-64
2023/03/07 11:22:25;;;;;;;12.20;10.20;;;;;;;7.38;50.56;99365.48;108088;1254;61247;-64
2023/03/07 11:24:59;;;;;;;12.80;10.20;;;;;;;7.38;50.36;99366.65;108075;1254;75571;-64
2023/03/07 11:27:33;;;;;;;13.00;10.30;;;;;;;7.36;50.21;99368.88;108197;1254;73294;-65
2023/03/07 11:30:40;;;;;;;11.50;9.20;;;;;;;7.40;49.81;99370.48;108136;1254;71886;-63
2023/03/07 11:33:26;;;;;;;13.30;10.00;;;;;;;7.56;49.68;99367.94;108039;1257;61369;-67
2023/03/07 11:36:24;;;;;;;13.30;9.80;;;;;;;7.72;49.34;99371.91;108118;1255;61132;-64
2023/03/07 11:39:02;;;;;;;13.20;9.70;;;;;;;7.83;48.75;99372.60;107859;1256;74297;-64
2023/03/07 11:41:40;;;;;;;12.20;9.60;;;;;;;7.75;48.52;99368.14;108082;1256;72871;-65
2023/03/07 11:44:16;;;;;;;11.20;8.80;;;;;;;7.72;48.47;99368.84;108090;1257;73664;-64
2023/03/07 11:46:47;;;;;;;11.80;9.60;;;;;;;7.87;47.97;99365.00;108074;1257;61115;-63
2023/03/07 11:49:39;;;;;;;11.60;8.50;;;;;;;8.03;47.54;99363.80;108113;1254;61186;-64
2023/03/07 11:52:28;;;;;;;11.80;9.10;;;;;;;8.07;47.44;99361.23;108102;1255;74577;-64
2023/03/07 11:55:15;;;;;;;12.20;9.20;;;;;;;8.01;47.13;99362.26;107990;1257;73011;-67
2023/03/07 11:58:09;;;;;;;13.80;10.50;;;;;;;8.00;47.27;99361.57;108158;1254;72810;-64
2023/03/07 12:00:51;;;;;;;11.40;8.90;;;;;;;8.12;47.31;99363.40;108122;1254;61105;-63
2023/03/07 12:03:38;;;;;;;10.60;8.20;;;;;;;8.28;47.35;99361.98;108150;1254;61120;-64
2023/03/07 12:06:38;;;;;;;12.70;9.40;;;;;;;8.44;46.53;99361.84;108115;1254;74078;-65
2023/03/07 12:09:34;;;;;;;11.70;9.90;;;;;;;8.49;46.05;99355.83;108115;1254;72551;-64
2023/03/07 12:12:10;;;;;;;12.30;9.50;;;;;;;8.45;45.96;99364.36;108110;1254;74010;-66
2023/03/07 12:15:06;;;;;;;13.20;10.30;;;;;;;8.38;46.25;99362.66;108109;1254;61135;-65
2023/03/07 12:18:05;;;;;;;11.20;8.50;;;;;;;8.36;46.49;99358.34;108091;1254;61205;-65
2023/03/07 12:20:39;;;;;;;11.70;9.20;;;;;;;8.40;46.35;99365.17;108189;1254;74846;-69
2023/03/07 12:23:19;;;;;;;13.80;9.90;;;;;;;8.38;46.15;99364.98;108190;1254;71834;-65
2023/03/07 12:25:57;;;;;;;12.70;10.10;;;;;;;8.33;46.59;99369.30;108086;1254;73955;-65